Terminal Aerodrome Forecast
Issued by NWS

Home | Current Version | Previous Version | Text Only | Print | Product List | Glossary On
Versions: 1 2 3 4 5 6 7 8 9 10 11 12 13 14 15 16 17 18 19 20 21 22 23
000
FTUS41 KPBZ 010500
TAFFKL
TAF
KFKL 010520Z 0106/0206 04004KT P6SM BKN004 OVC012
     FM010800 02007KT 6SM BR BKN004
     FM011500 35012G22KT P6SM VCSH BKN015
      AMD LTD TO CLD VIS AND WIND=

USA.gov is the U.S. government's official web portal to all federal, state and local government web resources and services.